Time;durP1;ratioP1;P1;durP2;ratioP2;P2;SDS_P1;SDS_P2;PMS_P1;PMS_P2;Temp;Humidity;BMP_temperature;BMP_pressure;BME280_temperature;BME280_humidity;BME280_pressure;Samples;Min_cycle;Max_cycle;Signal;HPM_P1;HPM_P2
2023/12/25 00:02:06;;;;;;;11.38;3.38;;;11.40;99.90;;;;;;5051642;28;20048;-61
2023/12/25 00:04:32;;;;;;;11.93;3.30;;;11.30;99.90;;;;;;5050680;28;20128;-61
2023/12/25 00:06:57;;;;;;;13.35;3.15;;;11.30;99.90;;;;;;5013314;28;20571;-61
2023/12/25 00:09:23;;;;;;;11.85;2.15;;;11.30;99.90;;;;;;4997640;28;20045;-61
2023/12/25 00:11:49;;;;;;;12.30;3.58;;;11.40;99.90;;;;;;5013861;28;20045;-61
2023/12/25 00:14:14;;;;;;;13.35;3.72;;;11.40;99.90;;;;;;4997186;28;20045;-61
2023/12/25 00:16:41;;;;;;;11.10;3.15;;;11.40;99.90;;;;;;4997642;28;20077;-61
2023/12/25 00:19:07;;;;;;;17.92;4.15;;;11.40;99.90;;;;;;5014595;28;20033;-61
2023/12/25 00:21:33;;;;;;;7.05;3.15;;;11.30;99.90;;;;;;5012990;28;20042;-61
2023/12/25 00:23:59;;;;;;;11.13;2.95;;;11.40;99.90;;;;;;5014518;28;20116;-61
2023/12/25 00:26:25;;;;;;;12.18;3.13;;;11.40;99.90;;;;;;5013762;28;20521;-61
2023/12/25 00:28:50;;;;;;;15.00;2.90;;;11.40;99.90;;;;;;5013269;28;20041;-61
2023/12/25 00:31:16;;;;;;;19.27;3.83;;;11.40;99.90;;;;;;5031468;28;20084;-61
2023/12/25 00:33:42;;;;;;;10.30;3.17;;;11.40;99.90;;;;;;5033152;28;20038;-61
2023/12/25 00:36:08;;;;;;;10.07;3.03;;;11.40;99.90;;;;;;5026960;28;20045;-61
2023/12/25 00:38:34;;;;;;;7.13;2.53;;;11.40;99.90;;;;;;5004564;28;20453;-61
2023/12/25 00:40:59;;;;;;;11.50;2.50;;;11.40;99.90;;;;;;5035315;28;20057;-61
2023/12/25 00:43:25;;;;;;;8.65;2.30;;;11.30;99.90;;;;;;5016449;28;20077;-61
2023/12/25 00:45:51;;;;;;;8.73;2.88;;;11.30;99.90;;;;;;5016989;28;20038;-61
2023/12/25 00:48:17;;;;;;;13.05;2.25;;;11.30;99.90;;;;;;5033354;28;20033;-61
2023/12/25 00:50:43;;;;;;;9.80;2.28;;;11.30;99.90;;;;;;5017703;28;20340;-61
2023/12/25 00:53:08;;;;;;;6.72;1.80;;;11.20;99.90;;;;;;5018020;28;20111;-61
2023/12/25 00:55:34;;;;;;;12.80;2.17;;;11.20;99.90;;;;;;5033012;28;20055;-61
2023/12/25 00:57:59;;;;;;;15.80;3.72;;;11.20;99.90;;;;;;5017525;28;20137;-61
2023/12/25 01:00:25;;;;;;;13.60;3.58;;;11.20;99.90;;;;;;5016811;28;20048;-62
2023/12/25 01:02:51;;;;;;;10.27;2.60;;;11.20;99.90;;;;;;5016224;28;20050;-62
2023/12/25 01:05:17;;;;;;;9.65;2.47;;;11.20;99.90;;;;;;5036087;28;20037;-62
2023/12/25 01:07:43;;;;;;;7.40;2.17;;;11.20;99.90;;;;;;5027596;28;20037;-62
2023/12/25 01:10:09;;;;;;;9.80;2.58;;;11.20;99.90;;;;;;5016115;28;20482;-62
2023/12/25 01:12:35;;;;;;;8.07;2.45;;;11.20;99.90;;;;;;5033197;28;20121;-62
2023/12/25 01:15:00;;;;;;;15.02;2.38;;;11.20;99.90;;;;;;5016916;28;20041;-59
2023/12/25 01:17:26;;;;;;;8.40;2.25;;;11.20;99.90;;;;;;5032189;28;20045;-60
2023/12/25 01:19:52;;;;;;;8.68;2.80;;;11.20;99.90;;;;;;5033386;28;20124;-60
2023/12/25 01:22:18;;;;;;;11.77;2.35;;;11.20;99.90;;;;;;5016361;28;20056;-60
2023/12/25 01:24:44;;;;;;;11.73;2.85;;;11.20;99.90;;;;;;5034654;28;20047;-60
2023/12/25 01:27:10;;;;;;;9.32;2.13;;;11.20;99.90;;;;;;5036103;28;20033;-60
2023/12/25 01:29:36;;;;;;;13.00;3.25;;;11.20;99.90;;;;;;5017471;28;20399;-60
2023/12/25 01:32:02;;;;;;;11.88;3.08;;;11.20;99.90;;;;;;5033924;28;20077;-60
2023/12/25 01:34:27;;;;;;;10.85;2.95;;;11.10;99.90;;;;;;5038689;28;20048;-60
2023/12/25 01:36:53;;;;;;;14.77;2.13;;;11.10;99.90;;;;;;5051784;28;20174;-60
2023/12/25 01:39:19;;;;;;;8.02;2.40;;;11.10;99.90;;;;;;5015425;28;20049;-60
2023/12/25 01:41:44;;;;;;;10.60;2.88;;;11.10;99.90;;;;;;4999931;28;20120;-60
2023/12/25 01:44:12;;;;;;;8.32;2.38;;;11.10;99.90;;;;;;5016481;28;20045;-61
2023/12/25 01:46:38;;;;;;;8.90;2.38;;;11.10;99.90;;;;;;5032752;28;20406;-61
2023/12/25 01:49:05;;;;;;;6.30;2.13;;;11.00;99.90;;;;;;5016347;28;20045;-60
2023/12/25 01:51:31;;;;;;;11.45;3.20;;;11.00;99.90;;;;;;5000370;28;20077;-60
2023/12/25 01:53:58;;;;;;;11.77;2.88;;;11.00;99.90;;;;;;5015653;28;20045;-60
2023/12/25 01:56:24;;;;;;;10.77;3.30;;;10.90;99.90;;;;;;5015902;28;20049;-60
2023/12/25 01:58:49;;;;;;;8.07;2.13;;;10.90;99.90;;;;;;5015120;28;20037;-60
2023/12/25 02:01:15;;;;;;;12.55;3.15;;;10.90;99.90;;;;;;5015818;28;20040;-61
2023/12/25 02:03:41;;;;;;;12.88;2.83;;;10.90;99.90;;;;;;5015433;28;20111;-60
2023/12/25 02:06:07;;;;;;;9.70;2.35;;;10.90;99.90;;;;;;5015123;28;20041;-60
2023/12/25 02:08:33;;;;;;;7.68;2.05;;;10.80;99.90;;;;;;5016320;28;20471;-61
2023/12/25 02:11:03;;;;;;;12.80;3.08;;;10.90;99.90;;;;;;5016163;28;20041;-61
2023/12/25 02:13:29;;;;;;;7.78;2.40;;;10.80;99.90;;;;;;4998683;28;20482;-60
2023/12/25 02:15:55;;;;;;;10.82;2.78;;;10.80;99.90;;;;;;5032189;28;20129;-61
2023/12/25 02:18:21;;;;;;;9.98;3.35;;;10.80;99.90;;;;;;5015560;28;20048;-60
2023/12/25 02:20:47;;;;;;;11.35;2.50;;;10.90;99.90;;;;;;5031439;28;20059;-60
2023/12/25 02:23:16;;;;;;;12.50;3.10;;;10.90;99.90;;;;;;5016820;28;20550;-61
2023/12/25 02:25:58;;;;;;;10.10;2.45;;;10.90;99.90;;;;;;5015529;28;20065;-60
2023/12/25 02:28:24;;;;;;;11.20;3.05;;;10.90;99.90;;;;;;5014565;28;20048;-60
2023/12/25 02:30:51;;;;;;;10.15;2.63;;;10.90;99.90;;;;;;5015424;28;20049;-61
2023/12/25 02:33:17;;;;;;;13.20;3.33;;;10.80;99.90;;;;;;5015193;28;20041;-60
2023/12/25 02:35:43;;;;;;;9.32;2.63;;;10.80;99.90;;;;;;5014312;28;20052;-60
2023/12/25 02:38:08;;;;;;;8.82;2.72;;;10.80;99.90;;;;;;5033078;28;20034;-60
2023/12/25 02:40:43;;;;;;;12.82;3.33;;;10.70;99.90;;;;;;5015113;28;20052;-61
2023/12/25 02:43:10;;;;;;;12.23;3.08;;;10.70;99.90;;;;;;5014894;28;20052;-60
2023/12/25 02:45:36;;;;;;;9.93;2.47;;;10.60;99.90;;;;;;5015220;28;20394;-60
2023/12/25 02:48:02;;;;;;;9.77;2.92;;;10.60;99.90;;;;;;5027214;28;20052;-60
2023/12/25 02:50:27;;;;;;;15.30;2.92;;;10.60;99.90;;;;;;5052554;28;20076;-60
2023/12/25 02:52:53;;;;;;;10.40;2.95;;;10.60;99.90;;;;;;5017647;28;20397;-60
2023/12/25 02:55:19;;;;;;;10.65;2.78;;;10.60;99.90;;;;;;5017511;28;20451;-60
2023/12/25 02:57:45;;;;;;;10.75;3.20;;;10.60;99.90;;;;;;5018562;28;20041;-60
2023/12/25 03:00:11;;;;;;;13.48;2.38;;;10.60;99.90;;;;;;5034782;28;20041;-61
2023/12/25 03:02:36;;;;;;;11.63;3.53;;;10.50;99.90;;;;;;5051488;28;20114;-60
2023/12/25 03:05:02;;;;;;;14.20;4.35;;;10.60;99.90;;;;;;5034670;28;20545;-60
2023/12/25 03:07:28;;;;;;;14.32;4.18;;;10.60;99.90;;;;;;5011841;28;20128;-60
2023/12/25 03:09:53;;;;;;;13.05;3.55;;;10.60;99.90;;;;;;5013912;28;20044;-60
2023/12/25 03:12:19;;;;;;;13.45;4.25;;;10.60;99.90;;;;;;5014761;28;20045;-60
2023/12/25 03:14:45;;;;;;;11.75;2.53;;;10.60;99.90;;;;;;5014487;28;20056;-60
2023/12/25 03:17:10;;;;;;;9.05;2.42;;;10.60;99.90;;;;;;5013605;28;20044;-61
2023/12/25 03:19:36;;;;;;;19.00;5.55;;;10.60;99.90;;;;;;5032386;28;20038;-60
2023/12/25 03:22:01;;;;;;;18.65;3.63;;;10.60;99.90;;;;;;5014826;28;20049;-60
2023/12/25 03:24:27;;;;;;;12.90;3.25;;;10.60;99.90;;;;;;5016896;28;20052;-60
2023/12/25 03:26:53;;;;;;;15.70;3.33;;;10.60;99.90;;;;;;5050928;28;20064;-60
2023/12/25 03:29:18;;;;;;;11.07;3.28;;;10.60;99.90;;;;;;5050651;28;20036;-60
2023/12/25 03:31:44;;;;;;;11.82;4.03;;;10.50;99.90;;;;;;5050026;28;20120;-60
2023/12/25 03:34:15;;;;;;;12.40;4.82;;;10.50;99.90;;;;;;5051099;28;20052;-60
2023/12/25 03:36:41;;;;;;;12.50;3.92;;;10.50;99.90;;;;;;5034264;28;20056;-60
2023/12/25 03:39:07;;;;;;;14.35;3.95;;;10.50;99.90;;;;;;5014049;28;20548;-60
2023/12/25 03:41:33;;;;;;;10.20;2.90;;;10.50;99.90;;;;;;5014178;28;20076;-60
2023/12/25 03:43:59;;;;;;;8.80;3.95;;;10.50;99.90;;;;;;5030712;28;20037;-60
2023/12/25 03:46:24;;;;;;;9.18;2.65;;;10.60;99.90;;;;;;5030306;28;20037;-60
2023/12/25 03:48:50;;;;;;;12.32;3.03;;;10.60;99.90;;;;;;5034288;28;20442;-60
2023/12/25 03:51:16;;;;;;;7.03;2.78;;;10.60;99.90;;;;;;5033102;28;20506;-61
2023/12/25 03:53:42;;;;;;;15.15;3.08;;;10.50;99.90;;;;;;5050790;28;20045;-60
2023/12/25 03:56:08;;;;;;;10.55;3.63;;;10.60;99.90;;;;;;5034179;28;20048;-60
2023/12/25 03:58:35;;;;;;;9.43;3.20;;;10.60;99.90;;;;;;5033267;28;20218;-61
2023/12/25 04:01:01;;;;;;;10.25;3.58;;;10.60;99.90;;;;;;5034297;28;20080;-60
2023/12/25 04:03:26;;;;;;;7.15;2.42;;;10.60;99.90;;;;;;5033933;28;20050;-60
2023/12/25 04:05:52;;;;;;;10.85;2.67;;;10.60;99.90;;;;;;5049557;28;20504;-60
2023/12/25 04:08:18;;;;;;;9.35;3.47;;;10.60;99.90;;;;;;5041391;28;20041;-60
2023/12/25 04:10:43;;;;;;;13.55;3.00;;;10.60;99.90;;;;;;5030071;28;20098;-60
2023/12/25 04:13:09;;;;;;;10.30;3.10;;;10.60;99.90;;;;;;5033472;28;20046;-60
2023/12/25 04:15:34;;;;;;;10.02;3.17;;;10.60;99.90;;;;;;5001563;28;20045;-60
2023/12/25 04:18:00;;;;;;;13.60;3.45;;;10.60;99.90;;;;;;5034846;28;20618;-60
2023/12/25 04:20:26;;;;;;;16.85;5.50;;;10.60;99.90;;;;;;5033596;28;20080;-60
2023/12/25 04:22:51;;;;;;;11.85;3.47;;;10.60;99.90;;;;;;5018022;28;20486;-60
2023/12/25 04:25:17;;;;;;;10.27;2.60;;;10.60;99.90;;;;;;5001860;28;20494;-60
2023/12/25 04:27:43;;;;;;;11.18;2.92;;;10.60;99.90;;;;;;5033332;28;20068;-60
2023/12/25 04:30:08;;;;;;;12.75;3.35;;;10.60;99.90;;;;;;5033933;28;20060;-60
2023/12/25 04:32:34;;;;;;;12.80;2.38;;;10.60;99.90;;;;;;5017565;28;20049;-60
2023/12/25 04:35:00;;;;;;;9.15;2.75;;;10.60;99.90;;;;;;5000756;28;20125;-60
2023/12/25 04:37:25;;;;;;;13.18;2.13;;;10.60;99.90;;;;;;5032629;28;20065;-60
2023/12/25 04:39:51;;;;;;;9.32;2.67;;;10.60;99.90;;;;;;5034126;28;20132;-61
2023/12/25 04:42:17;;;;;;;11.35;3.00;;;10.60;99.90;;;;;;5032764;28;20125;-61
2023/12/25 04:44:43;;;;;;;12.57;3.20;;;10.60;99.90;;;;;;5001063;28;20052;-60
2023/12/25 04:47:08;;;;;;;11.52;2.90;;;10.60;99.90;;;;;;5000877;28;20128;-60
2023/12/25 04:49:34;;;;;;;11.32;3.47;;;10.60;99.90;;;;;;5017786;28;20038;-60
2023/12/25 04:52:00;;;;;;;12.70;2.58;;;10.50;99.90;;;;;;5017761;28;20107;-60
2023/12/25 04:54:26;;;;;;;13.20;3.47;;;10.50;99.90;;;;;;5033324;28;20041;-61
2023/12/25 04:56:56;;;;;;;11.25;3.30;;;10.50;99.90;;;;;;5017058;28;20107;-60
2023/12/25 04:59:22;;;;;;;10.70;3.33;;;10.50;99.90;;;;;;5017248;28;20371;-60
2023/12/25 05:01:51;;;;;;;13.00;4.55;;;10.50;99.90;;;;;;5015837;28;20049;-61
2023/12/25 05:04:17;;;;;;;10.40;2.70;;;10.50;99.90;;;;;;5017319;28;20045;-60
2023/12/25 05:06:42;;;;;;;12.93;3.05;;;10.50;99.90;;;;;;5033489;28;20041;-61
2023/12/25 05:09:08;;;;;;;12.70;2.55;;;10.50;99.90;;;;;;5035817;28;20093;-60
2023/12/25 05:11:34;;;;;;;7.80;2.88;;;10.40;99.90;;;;;;5036383;28;20090;-60
2023/12/25 05:14:00;;;;;;;15.15;3.13;;;10.50;99.90;;;;;;5036472;28;20374;-60
2023/12/25 05:16:26;;;;;;;15.52;3.47;;;10.40;99.90;;;;;;5036195;28;20060;-60
2023/12/25 05:18:52;;;;;;;17.98;3.20;;;10.50;99.90;;;;;;5025872;28;20487;-60
2023/12/25 05:21:17;;;;;;;9.23;2.70;;;10.40;99.90;;;;;;5032137;28;20386;-60
2023/12/25 05:23:43;;;;;;;12.20;2.67;;;10.40;99.90;;;;;;5034424;28;20493;-60
2023/12/25 05:26:09;;;;;;;12.77;3.05;;;10.40;99.90;;;;;;5027822;28;20042;-60
2023/12/25 05:28:35;;;;;;;9.32;3.35;;;10.40;99.90;;;;;;5016467;28;20041;-60
2023/12/25 05:31:01;;;;;;;15.25;3.28;;;10.30;99.90;;;;;;5016217;28;20041;-60
2023/12/25 05:33:26;;;;;;;10.43;2.90;;;10.30;99.90;;;;;;5024477;28;20107;-60
2023/12/25 05:35:52;;;;;;;13.18;2.58;;;10.30;99.90;;;;;;5053975;28;20041;-60
2023/12/25 05:38:18;;;;;;;9.27;3.58;;;10.20;99.90;;;;;;5053279;28;20041;-60
2023/12/25 05:40:43;;;;;;;17.48;3.88;;;10.20;99.90;;;;;;5053768;28;20482;-60
2023/12/25 05:43:10;;;;;;;7.88;2.85;;;10.20;99.90;;;;;;5052291;28;20095;-60
2023/12/25 05:45:38;;;;;;;11.05;3.08;;;10.10;99.90;;;;;;5035643;28;20048;-60
2023/12/25 05:48:04;;;;;;;14.07;3.00;;;10.10;99.90;;;;;;5036465;28;20043;-60
2023/12/25 05:50:29;;;;;;;11.77;3.75;;;10.10;99.90;;;;;;5052435;28;20194;-60
2023/12/25 05:52:55;;;;;;;9.82;2.83;;;10.10;99.90;;;;;;5053510;28;20041;-60
2023/12/25 05:55:21;;;;;;;12.98;3.58;;;10.10;99.90;;;;;;5053473;28;20080;-60
2023/12/25 05:57:48;;;;;;;14.98;4.50;;;10.00;99.90;;;;;;5053388;28;20033;-60
2023/12/25 06:00:14;;;;;;;9.48;2.75;;;10.00;99.90;;;;;;5035753;28;20048;-60
2023/12/25 06:02:40;;;;;;;11.70;3.22;;;10.00;99.90;;;;;;5035129;28;20057;-60
2023/12/25 06:05:06;;;;;;;9.73;2.50;;;10.00;99.90;;;;;;5051770;28;20037;-60
2023/12/25 06:07:32;;;;;;;9.73;3.33;;;10.00;99.90;;;;;;5036008;28;20119;-60
2023/12/25 06:09:57;;;;;;;12.05;2.92;;;10.00;99.90;;;;;;5035490;28;20126;-60
2023/12/25 06:12:23;;;;;;;10.57;2.40;;;10.00;99.90;;;;;;5034820;28;20045;-60
2023/12/25 06:14:49;;;;;;;10.73;1.80;;;10.00;99.90;;;;;;5035362;28;20048;-60
2023/12/25 06:17:14;;;;;;;5.88;2.40;;;10.00;99.90;;;;;;5035330;28;20047;-60
2023/12/25 06:19:40;;;;;;;17.30;3.55;;;10.00;99.90;;;;;;5032519;28;20375;-60
2023/12/25 06:22:06;;;;;;;14.57;2.92;;;10.00;99.90;;;;;;5015805;28;20079;-60
2023/12/25 06:24:32;;;;;;;11.52;2.50;;;10.00;99.90;;;;;;5014852;28;20486;-60
2023/12/25 06:26:57;;;;;;;16.90;3.25;;;10.00;99.90;;;;;;5015125;28;20044;-60
2023/12/25 06:29:23;;;;;;;9.10;2.80;;;10.10;99.90;;;;;;5015234;28;20038;-60
2023/12/25 06:31:48;;;;;;;12.80;3.13;;;10.10;99.90;;;;;;5014948;28;20041;-60
2023/12/25 06:34:14;;;;;;;10.25;2.97;;;10.10;99.90;;;;;;5032607;28;20034;-60
2023/12/25 06:36:40;;;;;;;14.32;3.42;;;10.10;99.90;;;;;;5015365;28;20128;-60
2023/12/25 06:39:06;;;;;;;18.00;2.80;;;10.10;99.90;;;;;;5015464;28;20033;-60
2023/12/25 06:41:31;;;;;;;13.88;3.13;;;10.10;99.90;;;;;;5013964;28;20045;-60
2023/12/25 06:43:57;;;;;;;9.77;2.55;;;10.10;99.90;;;;;;4999111;28;20037;-60
2023/12/25 06:46:23;;;;;;;6.57;2.55;;;10.00;99.90;;;;;;4998365;28;20110;-60
2023/12/25 06:48:48;;;;;;;16.95;4.00;;;10.00;99.90;;;;;;5014690;28;20037;-60
2023/12/25 06:51:14;;;;;;;7.38;2.42;;;10.00;99.90;;;;;;5030268;28;20047;-60
2023/12/25 06:53:41;;;;;;;8.23;2.33;;;10.00;99.90;;;;;;5034583;28;20068;-60
2023/12/25 06:56:07;;;;;;;8.05;3.80;;;9.90;99.90;;;;;;5052164;28;20099;-60
2023/12/25 06:58:33;;;;;;;11.18;2.88;;;9.90;99.90;;;;;;5023067;28;20041;-60
2023/12/25 07:01:00;;;;;;;11.25;4.63;;;9.90;99.90;;;;;;5014588;28;20041;-60
2023/12/25 07:03:26;;;;;;;16.23;3.22;;;9.90;99.90;;;;;;5039471;28;20387;-60
2023/12/25 07:05:52;;;;;;;14.68;3.35;;;9.90;99.90;;;;;;5034758;28;20127;-60
2023/12/25 07:08:18;;;;;;;14.18;3.00;;;9.80;99.90;;;;;;5015290;28;20055;-60
2023/12/25 07:10:46;;;;;;;9.73;2.75;;;9.80;99.90;;;;;;5031774;28;20036;-60
2023/12/25 07:13:12;;;;;;;10.35;3.08;;;9.80;99.90;;;;;;5031367;28;20057;-60
2023/12/25 07:15:38;;;;;;;13.18;3.47;;;9.80;99.90;;;;;;5013923;28;20045;-60
2023/12/25 07:18:05;;;;;;;13.77;4.05;;;9.80;99.90;;;;;;5028873;28;20037;-60
2023/12/25 07:20:31;;;;;;;15.63;3.85;;;9.80;99.90;;;;;;5014045;28;20120;-60
2023/12/25 07:22:57;;;;;;;14.40;3.95;;;9.70;99.90;;;;;;5013630;28;20120;-60
2023/12/25 07:25:22;;;;;;;16.00;2.65;;;9.70;99.90;;;;;;5017993;28;20437;-60
2023/12/25 07:27:51;;;;;;;11.80;2.45;;;9.70;99.90;;;;;;5049751;28;20116;-60
2023/12/25 07:30:17;;;;;;;7.75;1.77;;;9.70;99.90;;;;;;5030825;28;20446;-60
2023/12/25 07:32:42;;;;;;;12.57;3.05;;;9.70;99.90;;;;;;5031012;28;20098;-60
2023/12/25 07:35:08;;;;;;;8.48;2.58;;;9.70;99.90;;;;;;5015207;28;20040;-60
2023/12/25 07:37:34;;;;;;;12.73;3.08;;;9.70;99.90;;;;;;5013953;28;20045;-60
2023/12/25 07:40:00;;;;;;;17.52;3.70;;;9.60;99.90;;;;;;5031577;28;20037;-60
2023/12/25 07:42:26;;;;;;;16.15;3.08;;;9.70;99.90;;;;;;5031019;28;20077;-60
2023/12/25 07:44:52;;;;;;;14.55;2.47;;;9.60;99.90;;;;;;5030794;28;20446;-60
2023/12/25 07:47:18;;;;;;;9.40;3.13;;;9.50;99.90;;;;;;5025970;28;20056;-60
2023/12/25 07:49:43;;;;;;;8.45;2.85;;;9.50;99.90;;;;;;5035513;28;20076;-60
2023/12/25 07:52:09;;;;;;;8.07;2.33;;;9.40;99.90;;;;;;5018580;28;20053;-60
2023/12/25 07:54:34;;;;;;;10.50;2.40;;;9.40;99.90;;;;;;5035735;28;20044;-60
2023/12/25 07:57:00;;;;;;;5.55;1.67;;;9.40;99.90;;;;;;5035050;28;20406;-60
2023/12/25 07:59:26;;;;;;;6.47;1.77;;;9.30;99.90;;;;;;5013890;28;20087;-60
2023/12/25 08:01:52;;;;;;;5.93;2.08;;;9.30;99.90;;;;;;5034866;28;20099;-60
2023/12/25 08:04:17;;;;;;;6.43;1.80;;;9.20;99.90;;;;;;5011435;28;20131;-60
2023/12/25 08:06:43;;;;;;;6.50;1.90;;;9.20;99.90;;;;;;5021950;28;20462;-59
2023/12/25 08:09:09;;;;;;;9.10;1.83;;;9.10;99.90;;;;;;5035158;28;20481;-60
2023/12/25 08:11:35;;;;;;;6.50;1.30;;;9.10;99.90;;;;;;5034791;28;20468;-59
2023/12/25 08:14:01;;;;;;;7.50;1.60;;;9.10;99.90;;;;;;5030855;28;20041;-60
2023/12/25 08:16:27;;;;;;;5.55;1.83;;;9.00;99.90;;;;;;5024488;28;20041;-59
2023/12/25 08:18:53;;;;;;;7.03;1.85;;;8.90;99.90;;;;;;5029304;28;20052;-60
2023/12/25 08:21:20;;;;;;;12.32;2.47;;;8.90;99.90;;;;;;5050679;28;20132;-60
2023/12/25 08:23:46;;;;;;;11.73;5.70;;;8.80;99.90;;;;;;5034888;28;20088;-60
2023/12/25 08:26:11;;;;;;;8.05;2.83;;;8.80;99.90;;;;;;5017674;28;20093;-60
2023/12/25 08:28:40;;;;;;;15.07;2.95;;;8.80;99.90;;;;;;5033201;28;20045;-61
2023/12/25 08:31:06;;;;;;;8.60;2.92;;;8.80;99.90;;;;;;5035025;28;20052;-60
2023/12/25 08:33:33;;;;;;;6.30;2.65;;;8.70;99.90;;;;;;5043245;28;20087;-60
2023/12/25 08:35:59;;;;;;;6.82;2.17;;;8.70;99.90;;;;;;5015366;28;20045;-60
2023/12/25 08:38:24;;;;;;;11.93;2.38;;;8.60;99.90;;;;;;5015937;28;20459;-60
2023/12/25 08:40:50;;;;;;;14.82;4.07;;;8.70;99.90;;;;;;5030777;28;20123;-60
2023/12/25 08:43:16;;;;;;;10.57;3.88;;;8.60;99.90;;;;;;5020207;28;20052;-60
2023/12/25 08:45:41;;;;;;;8.15;3.15;;;8.60;99.90;;;;;;5034201;28;20045;-60
2023/12/25 08:48:07;;;;;;;12.02;2.80;;;8.60;99.90;;;;;;5034396;28;20045;-60
2023/12/25 08:50:32;;;;;;;12.63;3.53;;;8.60;99.90;;;;;;5018022;28;20451;-60
2023/12/25 08:52:58;;;;;;;10.38;2.42;;;8.50;99.90;;;;;;5013949;28;20053;-60
2023/12/25 08:55:24;;;;;;;17.92;5.32;;;8.50;99.90;;;;;;5013397;28;20052;-60
2023/12/25 08:57:49;;;;;;;12.95;4.40;;;8.50;99.90;;;;;;5026505;28;20041;-60
2023/12/25 09:00:15;;;;;;;11.50;3.00;;;8.50;99.90;;;;;;5024743;28;20053;-60
2023/12/25 09:02:41;;;;;;;9.10;2.55;;;8.50;99.90;;;;;;5013259;28;20059;-60
2023/12/25 09:05:07;;;;;;;16.42;2.30;;;8.50;99.90;;;;;;5031116;28;20041;-60
2023/12/25 09:07:33;;;;;;;8.52;2.03;;;8.60;99.90;;;;;;5029861;28;20103;-60
2023/12/25 09:09:59;;;;;;;7.82;2.22;;;8.60;99.90;;;;;;4998836;28;20033;-60
2023/12/25 09:12:24;;;;;;;9.00;2.30;;;8.60;99.90;;;;;;5031927;28;20128;-60
2023/12/25 09:14:52;;;;;;;9.77;2.80;;;8.60;99.90;;;;;;5022189;28;20044;-60
2023/12/25 09:17:18;;;;;;;13.70;4.78;;;8.60;99.90;;;;;;5036357;28;20052;-60
2023/12/25 09:19:43;;;;;;;8.07;2.92;;;8.70;99.90;;;;;;5050868;28;20029;-60
2023/12/25 09:22:09;;;;;;;9.52;2.00;;;8.70;99.90;;;;;;5022013;28;20042;-60
2023/12/25 09:24:34;;;;;;;8.48;2.50;;;8.70;99.90;;;;;;5032527;28;20034;-60
2023/12/25 09:27:00;;;;;;;9.57;2.25;;;8.70;99.90;;;;;;5033342;28;20040;-60
2023/12/25 09:29:27;;;;;;;10.07;2.47;;;8.70;99.90;;;;;;5034336;28;20044;-60
2023/12/25 09:31:52;;;;;;;8.77;2.60;;;8.80;99.90;;;;;;5036520;28;20493;-60
2023/12/25 09:34:18;;;;;;;7.88;2.08;;;8.80;99.90;;;;;;5053884;28;20056;-60
2023/12/25 09:36:44;;;;;;;10.95;2.92;;;8.90;99.90;;;;;;5052016;28;20049;-60
2023/12/25 09:39:10;;;;;;;9.80;3.60;;;8.90;99.90;;;;;;5019271;28;20041;-59
2023/12/25 09:41:36;;;;;;;9.15;2.28;;;8.90;99.90;;;;;;5036095;28;20048;-60
2023/12/25 09:44:02;;;;;;;11.80;2.60;;;9.00;99.90;;;;;;5035182;28;20067;-59
2023/12/25 09:46:31;;;;;;;10.18;3.58;;;9.00;99.90;;;;;;5024760;28;20041;-59
2023/12/25 09:48:57;;;;;;;11.68;3.13;;;9.00;99.90;;;;;;5015888;28;20038;-59
2023/12/25 09:51:25;;;;;;;11.93;2.90;;;9.10;99.90;;;;;;5015547;28;20072;-60
2023/12/25 09:53:51;;;;;;;8.18;2.42;;;9.10;99.90;;;;;;5016114;28;20056;-60
2023/12/25 09:56:21;;;;;;;13.32;4.20;;;9.10;99.90;;;;;;5015982;28;20124;-60
2023/12/25 09:58:53;;;;;;;15.25;5.57;;;9.20;99.90;;;;;;5015258;28;20037;-61
2023/12/25 10:01:20;;;;;;;9.95;3.53;;;9.10;99.90;;;;;;5035528;28;20161;-60
2023/12/25 10:03:46;;;;;;;27.63;11.85;;;9.20;99.90;;;;;;5019163;28;20518;-59
2023/12/25 10:06:12;;;;;;;18.58;4.40;;;9.20;99.90;;;;;;5012371;28;20041;-60
2023/12/25 10:08:39;;;;;;;16.83;3.97;;;9.20;99.90;;;;;;5015707;28;20132;-60
2023/12/25 10:11:08;;;;;;;20.13;6.60;;;9.20;99.90;;;;;;5014994;28;20053;-60
2023/12/25 10:13:34;;;;;;;9.10;3.20;;;9.20;99.90;;;;;;5015723;28;20099;-60
2023/12/25 10:16:02;;;;;;;11.90;4.78;;;9.20;99.90;;;;;;5014505;28;20498;-60
2023/12/25 10:18:28;;;;;;;11.48;4.57;;;9.30;99.90;;;;;;5014490;28;20137;-60
2023/12/25 10:20:58;;;;;;;13.38;5.03;;;9.30;99.90;;;;;;5015532;28;20463;-60
2023/12/25 10:23:31;;;;;;;11.20;4.57;;;9.30;99.90;;;;;;5015404;28;20055;-60
2023/12/25 10:26:02;;;;;;;13.20;5.47;;;9.30;99.90;;;;;;5014830;28;20048;-60
2023/12/25 10:28:30;;;;;;;14.25;5.13;;;9.30;99.90;;;;;;5015427;28;20050;-60
2023/12/25 10:31:25;;;;;;;10.38;5.07;;;9.40;99.90;;;;;;5015378;28;20060;-60
2023/12/25 10:33:58;;;;;;;10.50;3.45;;;9.30;99.90;;;;;;4998508;28;20107;-60
2023/12/25 10:36:24;;;;;;;17.10;5.82;;;9.40;99.90;;;;;;5015416;28;20151;-60
2023/12/25 10:38:50;;;;;;;10.75;3.42;;;9.30;99.90;;;;;;5014898;28;20049;-60
2023/12/25 10:41:18;;;;;;;13.75;4.55;;;9.40;99.90;;;;;;5014462;28;20049;-60
2023/12/25 10:43:49;;;;;;;12.38;4.07;;;9.40;99.90;;;;;;5015091;28;20517;-60
2023/12/25 10:46:16;;;;;;;12.23;4.53;;;9.40;99.90;;;;;;5014618;28;20168;-60
2023/12/25 10:48:48;;;;;;;10.48;4.07;;;9.40;99.90;;;;;;5014848;28;20037;-60
2023/12/25 10:51:17;;;;;;;11.15;3.70;;;9.40;99.90;;;;;;4998865;28;20045;-60
2023/12/25 10:53:44;;;;;;;17.73;4.03;;;9.50;99.90;;;;;;5014086;28;20044;-60
2023/12/25 10:56:10;;;;;;;15.23;4.30;;;9.50;99.90;;;;;;5014764;28;20487;-60
2023/12/25 10:58:36;;;;;;;17.27;4.68;;;9.50;99.90;;;;;;5014792;28;20048;-60
2023/12/25 11:01:02;;;;;;;13.88;4.30;;;9.60;99.90;;;;;;5031933;28;20041;-60
2023/12/25 11:03:29;;;;;;;15.30;3.50;;;9.60;99.90;;;;;;5014380;28;20061;-60
2023/12/25 11:05:56;;;;;;;13.77;4.80;;;9.60;99.90;;;;;;5014692;28;20099;-60
2023/12/25 11:08:23;;;;;;;12.65;3.05;;;9.60;99.90;;;;;;5014450;28;20364;-60
2023/12/25 11:10:51;;;;;;;14.10;3.63;;;9.70;99.90;;;;;;5014512;28;20513;-61
2023/12/25 11:13:17;;;;;;;9.65;3.20;;;9.70;99.90;;;;;;5014311;28;20045;-60
2023/12/25 11:15:42;;;;;;;21.08;5.32;;;9.70;99.90;;;;;;5014081;28;20084;-60
2023/12/25 11:18:09;;;;;;;14.73;4.65;;;9.60;99.90;;;;;;4998173;28;20041;-61
2023/12/25 11:20:35;;;;;;;17.92;4.13;;;9.70;99.90;;;;;;5014586;28;20045;-60
2023/12/25 11:23:04;;;;;;;12.65;4.05;;;9.70;99.90;;;;;;5031830;28;20041;-61
2023/12/25 11:25:33;;;;;;;12.00;4.40;;;9.70;99.90;;;;;;4997809;28;20046;-61
2023/12/25 11:28:02;;;;;;;10.18;3.05;;;9.70;99.90;;;;;;5014212;28;20491;-60
2023/12/25 11:30:27;;;;;;;9.00;2.70;;;9.70;99.90;;;;;;5013839;28;20060;-60
2023/12/25 11:32:54;;;;;;;7.88;2.85;;;9.80;99.90;;;;;;5032083;28;20045;-60
2023/12/25 11:35:27;;;;;;;11.55;2.63;;;9.70;99.90;;;;;;5014239;28;20398;-60
2023/12/25 11:38:18;;;;;;;19.67;7.18;;;9.80;99.90;;;;;;5014227;28;20041;-60
2023/12/25 11:40:50;;;;;;;14.38;3.70;;;9.80;99.90;;;;;;5014461;28;20056;-60
2023/12/25 11:43:20;;;;;;;8.73;2.85;;;9.80;99.90;;;;;;5013306;28;20037;-60
2023/12/25 11:45:47;;;;;;;19.42;6.75;;;9.70;99.90;;;;;;5014182;28;20044;-60
2023/12/25 11:48:16;;;;;;;21.85;8.15;;;9.80;99.90;;;;;;5013992;28;20048;-60
2023/12/25 11:50:45;;;;;;;14.40;4.50;;;9.70;99.90;;;;;;5013692;28;20041;-60
2023/12/25 11:53:39;;;;;;;12.27;4.20;;;9.70;99.90;;;;;;5014128;28;20052;-60
2023/12/25 11:56:07;;;;;;;32.72;14.65;;;9.80;99.90;;;;;;5014123;28;20509;-60
2023/12/25 11:58:35;;;;;;;16.45;5.63;;;9.80;99.90;;;;;;5013432;28;20566;-60
2023/12/25 12:01:01;;;;;;;9.65;4.22;;;9.70;99.90;;;;;;5014392;28;20054;-60
2023/12/25 12:03:28;;;;;;;24.60;10.55;;;9.80;99.90;;;;;;5010699;28;20049;-60
2023/12/25 12:05:54;;;;;;;26.63;11.35;;;9.70;99.90;;;;;;5033347;28;20040;-60
2023/12/25 12:08:20;;;;;;;30.98;12.30;;;9.70;99.90;;;;;;5033759;28;20045;-60
2023/12/25 12:10:46;;;;;;;37.42;18.83;;;9.70;99.90;;;;;;5049595;28;20048;-60
2023/12/25 12:13:14;;;;;;;62.45;28.48;;;9.60;99.90;;;;;;5033642;28;20040;-60
2023/12/25 12:15:41;;;;;;;17.80;7.60;;;9.60;99.90;;;;;;5033677;28;20072;-59
2023/12/25 12:18:09;;;;;;;14.05;5.70;;;9.60;99.90;;;;;;5013050;28;20124;-60
2023/12/25 12:20:36;;;;;;;11.50;5.15;;;9.60;99.90;;;;;;5007748;28;20455;-60
2023/12/25 12:23:02;;;;;;;8.73;3.47;;;9.50;99.90;;;;;;5044470;28;20421;-60
2023/12/25 12:25:29;;;;;;;7.90;3.08;;;9.50;99.90;;;;;;5027966;28;20047;-60
2023/12/25 12:28:00;;;;;;;8.88;3.38;;;9.50;99.90;;;;;;5027864;28;20045;-60
2023/12/25 12:30:28;;;;;;;8.52;3.08;;;9.50;99.90;;;;;;5025267;28;20044;-60
2023/12/25 12:32:54;;;;;;;6.88;3.80;;;9.50;99.90;;;;;;5036293;28;20036;-60
2023/12/25 12:35:19;;;;;;;6.32;2.40;;;9.50;99.90;;;;;;5034481;28;20107;-60
2023/12/25 12:37:45;;;;;;;9.52;3.67;;;9.40;99.90;;;;;;5023251;28;20045;-60
2023/12/25 12:40:11;;;;;;;13.18;2.97;;;9.40;99.90;;;;;;5025077;28;20084;-60
2023/12/25 12:42:39;;;;;;;6.40;2.33;;;9.40;99.90;;;;;;5034183;28;20128;-60